Adin, CA

12:19 PM PDT on July 13, 2014 (GMT -0700)
Mount Shasta (KMHS) Elev 3533 ft | 41.32 °N, 122.32 °W | Change Station

Current weather conditions updated 23 minutes ago

Clear
Clear
91 °F
Feels Like 89 °F
N
0
Wind Variable Wind from North

Today is forecast to be nearly the same temperature as yesterday.

Today
High -- | Low -- °F
--% Chance of Precip.
Yesterday
High -- | Low -- °F
Precip. -- in
5:42 AM 8:36 PM
Full, 97% visible
Pressure 30.01 in
Visibility 10.0 miles
Clouds Clear
Heat Index 89 °F
Dew Point 55 °F
Humidity 29%
Rainfall 0.00 in
Snow Depth 0 in
UV 11 out of 12
Pollen 4.50 out of 12
Air Quality Not available.
Flu Activity Local Activity
METAR KMHS 131856Z AUTO 00000KT 10SM CLR 33/13 A3009 RMK AO2 SLP162 T03280128

More Conditions Fewer Conditions

Pressure 30.01 in
Visibility 10.0 miles
Clouds Clear
Heat Index 89 °F
Dew Point 55 °F
Humidity 29%
Rainfall 0.00 in
Snow Depth 0 in
UV 11 out of 12
Pollen 4.50 out of 12
Air Quality Not available.
Flu Activity Local Activity
METAR KMHS 131856Z AUTO 00000KT 10SM CLR 33/13 A3009 RMK AO2 SLP162 T03280128

More Conditions Fewer Conditions

10-Day Weather Forecast

Almanac

Astronomy

Jul. 13, 2014 Rise Set
Actual Time 5:42 AM PDT 8:36 PM PDT
Civil Twilight 5:09 AM PDT 9:08 PM PDT
Nautical Twilight 4:28 AM PDT 9:50 PM PDT
Astronomical Twilight 3:39 AM PDT 10:38 PM PDT
Moon 9:26 PM PDT 7:20 AM PDT
Length of Visible Light 15h 59m
Length of Day
14h 53m
Tomorrow will be 1m 20s shorter.
Full, 97% of the Moon is Illuminated
Today
Full
Jul 18
Last Quarter
Jul 26
New
Aug 3
First Quarter
Aug 10
Full

Today's Extremes

State Highs State Lows

Community

WunderPhotos

Upload Photos

1,733,340 photos uploaded!

Nearby

Snow Depth

Station Depth Elevation
Adin Mountain 0 in 6200 ft
Cedar Pass 0 in 7100 ft
Rubicon #2 10 in 7500 ft

Earthquake Activity

City Distance Mag. Time & Date
No recent earthquake activity has been reported nearby.
Minimum magnitude displayed is 2.5.

Coastal Water Temperatures

Place Temperature
No Stations Reporting

Nearby Weather Stations

Station Location Temp. Heat Index Dew Point Humidity Wind Precip. Elev Updated Type
Lookout, CA 99.0 °F 95 °F 40 °F 14% North  at  2.2 mph 0.00 in / hr 4265 ft 12:18 PM PDT Normal
HADS PIT RIVER BELOW MUCK VALLEY POWE CA, Nubieber, CA 88 °F 85 °F - - North  at  - 0.00 in / hr 4120 ft 11:00 AM PDT MADIS
RAWS CANBY CA, Canby, CA 93 °F 89 °F 46 °F 20% North  at  0 mph 0.00 in / hr 4314 ft 11:02 AM PDT MADIS
RAWS MDF06 PORTABLE CA, Canby, CA 95 °F 91 °F 43 °F 17% SSW  at  1 mph 0.00 in / hr 5044 ft 11:25 AM PDT MADIS
RAWS RUSH CREEK CA, Adin, CA 85 °F 82 °F 42 °F 22% SSW  at  4 mph 0.00 in / hr 5542 ft 11:03 AM PDT MADIS
ADIN MOUNTAIN, Modoc National Forest, CA 84.0 °F - - - North  at  - - / hr 6167 ft 11:45 AM PDT Normal
MesoWest ADIN MTN , Adin, CA 84 °F 81 °F - - North  at  - 0.00 in / hr 6200 ft 11:00 AM PDT MADIS

Show More Stations Show Fewer Stations